createdAt,value
2018-03-25T00:04:58.165Z,72.30
2018-03-25T00:07:44.775Z,72.50
2018-03-25T00:10:14.850Z,72.60
2018-03-25T00:12:44.971Z,72.30
2018-03-25T00:18:25.116Z,72.00
2018-03-25T00:24:38.694Z,72.60
2018-03-25T00:27:09.291Z,72.80
2018-03-25T00:29:39.393Z,72.80
2018-03-25T00:32:29.486Z,73.00
2018-03-25T00:41:13.591Z,74.80
2018-03-25T00:43:44.942Z,75.70
2018-03-25T00:46:15.007Z,76.40
2018-03-25T00:49:04.378Z,77.30
2018-03-25T00:54:41.308Z,77.20
2018-03-25T00:57:30.388Z,77.80
2018-03-25T01:03:09.811Z,78.60
2018-03-25T01:08:53.383Z,78.40
2018-03-25T01:11:43.919Z,77.50
2018-03-25T01:23:35.213Z,76.10
2018-03-25T01:26:04.949Z,75.40
2018-03-25T01:28:35.068Z,75.60
2018-03-25T01:31:05.297Z,75.50
2018-03-25T01:39:52.161Z,77.60
2018-03-25T01:42:22.242Z,78.50
2018-03-25T01:51:12.720Z,79.10
2018-03-25T01:57:02.551Z,79.50
2018-03-25T02:02:33.681Z,79.00
2018-03-25T02:05:03.406Z,78.20
2018-03-25T02:07:47.006Z,78.10
2018-03-25T02:10:32.658Z,78.10
2018-03-25T02:25:48.454Z,76.50
2018-03-25T02:34:55.034Z,76.50
2018-03-25T02:43:36.745Z,78.30
2018-03-25T02:46:28.988Z,78.40
2018-03-25T02:48:59.230Z,78.50
2018-03-25T02:54:34.291Z,78.00
2018-03-25T02:57:04.350Z,77.90
2018-03-25T02:59:34.428Z,77.90
2018-03-25T03:11:34.622Z,76.40
2018-03-25T03:14:30.042Z,75.70
2018-03-25T03:17:02.966Z,76.30
2018-03-25T03:19:33.041Z,76.80
2018-03-25T03:22:03.183Z,77.80
2018-03-25T03:24:33.229Z,77.80
2018-03-25T03:27:04.720Z,77.90
2018-03-25T03:32:45.639Z,78.80
2018-03-25T03:35:22.234Z,79.60
2018-03-25T03:37:52.626Z,80.20
2018-03-25T03:40:23.309Z,80.50
2018-03-25T03:42:53.976Z,80.40
2018-03-25T03:45:24.426Z,80.40
2018-03-25T03:47:54.534Z,80.20
2018-03-25T03:53:35.004Z,80.20
2018-03-25T03:56:28.746Z,79.90
2018-03-25T03:58:58.801Z,81.50
2018-03-25T04:01:28.733Z,81.90
2018-03-25T04:04:21.325Z,82.60
2018-03-25T04:09:53.775Z,80.70
2018-03-25T04:12:50.241Z,80.20
2018-03-25T04:15:20.681Z,79.50
2018-03-25T04:18:09.068Z,79.00
2018-03-25T04:23:18.120Z,78.40
2018-03-25T04:25:48.252Z,78.60
2018-03-25T04:33:56.282Z,80.00
2018-03-25T04:36:32.588Z,80.10
2018-03-25T04:42:21.802Z,80.80
2018-03-25T04:44:52.128Z,81.00
2018-03-25T04:47:22.581Z,80.90
2018-03-25T04:49:53.191Z,80.70
2018-03-25T04:52:23.635Z,80.50
2018-03-25T04:54:53.904Z,80.30
2018-03-25T04:57:23.958Z,80.20
2018-03-25T04:59:54.289Z,80.20
2018-03-25T05:02:24.404Z,80.30
2018-03-25T05:04:54.457Z,80.20
2018-03-25T05:07:24.620Z,80.40
2018-03-25T05:09:54.936Z,80.40
2018-03-25T05:12:25.005Z,80.20
2018-03-25T05:14:56.217Z,79.90
2018-03-25T05:17:26.605Z,79.80
2018-03-25T05:20:21.743Z,79.60
2018-03-25T05:22:52.868Z,79.40
2018-03-25T05:25:22.974Z,78.50
2018-03-25T05:27:53.359Z,77.70
2018-03-25T05:30:23.876Z,76.90
2018-03-25T05:32:54.299Z,76.50
2018-03-25T05:38:29.799Z,76.50
2018-03-25T05:40:59.900Z,76.80
2018-03-25T05:43:44.273Z,77.10
2018-03-25T05:46:14.672Z,77.60
2018-03-25T05:48:44.753Z,77.20
2018-03-25T05:51:14.849Z,77.10
2018-03-25T05:53:53.029Z,76.60
2018-03-25T05:56:22.919Z,75.70
2018-03-25T05:58:53.104Z,74.50
2018-03-25T06:01:23.427Z,73.90
2018-03-25T06:03:54.403Z,73.20
2018-03-25T06:06:50.656Z,73.00
2018-03-25T06:09:21.115Z,73.20
2018-03-25T06:11:53.750Z,72.80
2018-03-25T06:14:24.133Z,72.80
2018-03-25T06:17:20.313Z,72.60
2018-03-25T06:19:50.369Z,72.70
2018-03-25T06:22:20.633Z,72.10
2018-03-25T06:27:45.295Z,69.90
2018-03-25T06:30:15.364Z,70.30
2018-03-25T06:32:45.423Z,68.70
2018-03-25T06:38:27.438Z,68.30
2018-03-25T06:40:59.163Z,68.40
2018-03-25T06:43:30.020Z,67.70
2018-03-25T06:46:00.321Z,65.80
2018-03-25T06:48:31.325Z,64.80
2018-03-25T06:51:01.570Z,63.20
2018-03-25T06:53:31.674Z,61.10
2018-03-25T06:56:01.762Z,60.90
2018-03-25T07:01:11.954Z,58.20
2018-03-25T07:03:41.996Z,53.80
2018-03-25T07:06:12.094Z,54.00
2018-03-25T07:08:46.799Z,50.30
2018-03-25T07:11:20.018Z,49.70
2018-03-25T07:13:50.065Z,49.20
2018-03-25T07:16:21.177Z,48.10
2018-03-25T07:18:51.471Z,48.10
2018-03-25T07:21:22.397Z,47.30
2018-03-25T07:23:52.725Z,46.00
2018-03-25T07:26:22.802Z,46.40
2018-03-25T07:28:55.662Z,44.40
2018-03-25T07:31:25.837Z,44.40
2018-03-25T07:33:55.933Z,42.80
2018-03-25T07:36:26.007Z,44.20
2018-03-25T07:38:56.245Z,43.80
2018-03-25T07:41:26.303Z,41.70
2018-03-25T07:43:56.521Z,41.30
2018-03-25T07:46:26.592Z,41.30
2018-03-25T07:48:56.841Z,41.10
2018-03-25T07:51:26.934Z,40.50
2018-03-25T07:53:56.986Z,40.50
2018-03-25T07:56:27.267Z,38.10
2018-03-25T07:58:57.513Z,36.10
2018-03-25T08:01:27.781Z,37.20
2018-03-25T08:03:58.379Z,36.70
2018-03-25T08:06:29.457Z,36.50
2018-03-25T08:08:59.495Z,36.90
2018-03-25T08:11:30.911Z,35.50
2018-03-25T08:14:01.556Z,35.60
2018-03-25T08:16:32.644Z,35.90
2018-03-25T08:19:03.258Z,37.70
2018-03-25T08:21:34.070Z,36.50
2018-03-25T08:24:04.559Z,37.00
2018-03-25T08:26:35.425Z,37.80
2018-03-25T08:29:06.037Z,36.90
2018-03-25T08:31:36.674Z,36.60
2018-03-25T08:34:06.429Z,37.40
2018-03-25T08:36:36.927Z,36.40
2018-03-25T08:39:06.200Z,38.70
2018-03-25T08:41:36.920Z,38.90
2018-03-25T08:44:06.330Z,37.50
2018-03-25T08:46:36.391Z,35.80
2018-03-25T08:49:07.376Z,35.60
2018-03-25T08:51:37.664Z,35.50
2018-03-25T08:54:09.312Z,37.60
2018-03-25T08:56:40.524Z,35.20
2018-03-25T08:59:11.406Z,35.70
2018-03-25T09:01:42.023Z,35.60
2018-03-25T09:04:12.616Z,34.50
2018-03-25T09:06:43.260Z,35.00
2018-03-25T09:09:13.876Z,33.30
2018-03-25T09:11:44.713Z,35.20
2018-03-25T09:14:16.124Z,35.70
2018-03-25T09:16:46.426Z,35.70
2018-03-25T09:19:17.039Z,34.20
2018-03-25T09:21:47.870Z,34.70
2018-03-25T09:24:18.505Z,35.00
2018-03-25T09:26:49.339Z,37.50
2018-03-25T09:29:19.973Z,35.10
2018-03-25T09:31:50.604Z,33.10
2018-03-25T09:34:22.289Z,31.30
2018-03-25T09:36:52.924Z,31.30
2018-03-25T09:39:24.341Z,33.60
2018-03-25T09:41:55.001Z,33.60
2018-03-25T09:44:25.911Z,33.90
2018-03-25T09:46:56.776Z,33.00
2018-03-25T09:49:27.848Z,35.00
2018-03-25T09:51:58.886Z,33.00
2018-03-25T09:54:29.537Z,33.00
2018-03-25T09:57:00.181Z,29.40
2018-03-25T09:59:30.797Z,31.40
2018-03-25T10:02:04.245Z,27.90
2018-03-25T10:04:34.886Z,29.40
2018-03-25T10:07:05.729Z,32.70
2018-03-25T10:09:37.338Z,31.40
2018-03-25T10:12:08.028Z,31.40
2018-03-25T10:14:39.861Z,34.40
2018-03-25T10:17:10.528Z,34.30
2018-03-25T10:19:41.186Z,36.00
2018-03-25T10:22:11.989Z,35.40
2018-03-25T10:24:42.626Z,32.70
2018-03-25T10:27:13.292Z,30.50
2018-03-25T10:29:43.914Z,28.30
2018-03-25T10:32:14.582Z,30.20
2018-03-25T10:34:45.454Z,29.10
2018-03-25T10:37:17.158Z,29.50
2018-03-25T10:39:47.804Z,29.20
2018-03-25T10:42:18.640Z,30.10
2018-03-25T10:44:49.301Z,29.00
2018-03-25T10:47:19.939Z,28.00
2018-03-25T10:49:50.609Z,26.80
2018-03-25T10:52:21.283Z,29.00
2018-03-25T10:54:52.169Z,27.90
2018-03-25T10:57:23.337Z,28.20
2018-03-25T10:59:54.002Z,29.30
2018-03-25T11:02:25.655Z,28.00
2018-03-25T11:04:57.206Z,27.90
2018-03-25T11:07:28.266Z,25.20
2018-03-25T11:09:58.976Z,24.50
2018-03-25T11:12:29.590Z,24.80
2018-03-25T11:15:00.253Z,21.90
2018-03-25T11:17:31.982Z,25.30
2018-03-25T11:20:03.120Z,25.30
2018-03-25T11:22:33.659Z,30.10
2018-03-25T11:25:04.518Z,33.50
2018-03-25T11:27:35.451Z,31.80
2018-03-25T11:30:04.835Z,32.70
2018-03-25T11:32:34.880Z,33.40
2018-03-25T11:35:07.038Z,36.70
2018-03-25T11:37:37.082Z,36.60
2018-03-25T11:40:07.198Z,35.90
2018-03-25T11:42:37.427Z,35.20
2018-03-25T11:45:07.610Z,33.60
2018-03-25T11:47:37.725Z,32.80
2018-03-25T11:50:10.585Z,30.30
2018-03-25T11:52:41.019Z,32.70
2018-03-25T11:55:11.107Z,35.80
2018-03-25T11:57:41.947Z,36.70
2018-03-25T12:00:13.128Z,36.80
2018-03-25T12:02:43.276Z,36.00
2018-03-25T12:05:13.350Z,35.60
2018-03-25T12:07:44.593Z,36.50
2018-03-25T12:10:14.955Z,36.90
2018-03-25T12:12:45.945Z,37.30
2018-03-25T12:15:16.633Z,39.00
2018-03-25T12:17:48.678Z,40.00
2018-03-25T12:20:18.768Z,38.40
2018-03-25T12:22:49.009Z,37.30
2018-03-25T12:25:19.511Z,37.70
2018-03-25T12:27:49.962Z,37.30
2018-03-25T12:30:21.443Z,38.60
2018-03-25T12:32:52.301Z,38.10
2018-03-25T12:35:22.351Z,38.10
2018-03-25T12:37:53.347Z,35.60
2018-03-25T12:40:23.223Z,35.40
2018-03-25T12:42:53.402Z,32.80
2018-03-25T12:45:23.773Z,31.60
2018-03-25T12:47:54.335Z,33.10
2018-03-25T12:50:24.433Z,34.90
2018-03-25T12:52:54.517Z,31.20
2018-03-25T12:55:24.623Z,33.30
2018-03-25T12:57:54.740Z,34.90
2018-03-25T13:00:24.686Z,31.70
2018-03-25T13:02:54.872Z,34.50
2018-03-25T13:05:25.692Z,32.40
2018-03-25T13:07:56.090Z,32.20
2018-03-25T13:10:26.290Z,35.70
2018-03-25T13:12:56.609Z,37.40
2018-03-25T13:15:27.014Z,36.20
2018-03-25T13:17:57.355Z,35.70
2018-03-25T13:20:27.484Z,33.20
2018-03-25T13:22:57.578Z,32.30
2018-03-25T13:25:29.108Z,38.20
2018-03-25T13:27:59.188Z,38.10
2018-03-25T13:30:29.276Z,37.10
2018-03-25T13:32:59.055Z,38.70
2018-03-25T13:35:29.178Z,37.90
2018-03-25T13:37:59.221Z,35.10
2018-03-25T13:40:29.270Z,35.20
2018-03-25T13:42:59.223Z,36.20
2018-03-25T13:45:29.031Z,35.60
2018-03-25T13:48:04.066Z,37.20
2018-03-25T13:50:35.007Z,37.90
2018-03-25T13:53:06.030Z,37.80
2018-03-25T13:55:36.543Z,37.80
2018-03-25T13:58:06.675Z,39.90
2018-03-25T14:00:37.547Z,39.60
2018-03-25T14:03:07.936Z,39.50
2018-03-25T14:05:38.055Z,39.60
2018-03-25T14:08:09.093Z,38.40
2018-03-25T14:10:39.327Z,37.90
2018-03-25T14:13:10.153Z,37.20
2018-03-25T14:15:40.309Z,37.20
2018-03-25T14:18:10.362Z,38.50
2018-03-25T14:20:40.452Z,37.30
2018-03-25T14:23:10.526Z,37.10
2018-03-25T14:25:41.424Z,40.00
2018-03-25T14:28:11.811Z,39.10
2018-03-25T14:30:41.997Z,39.70
2018-03-25T14:33:12.335Z,37.30
2018-03-25T14:35:42.117Z,34.90
2018-03-25T14:38:12.390Z,34.60
2018-03-25T14:40:42.723Z,36.40
2018-03-25T14:43:13.086Z,35.30
2018-03-25T14:45:44.687Z,36.20
2018-03-25T14:48:14.565Z,36.20
2018-03-25T14:50:44.748Z,38.00
2018-03-25T14:53:15.175Z,38.10
2018-03-25T14:55:45.296Z,36.40
2018-03-25T14:58:15.363Z,37.70
2018-03-25T15:00:45.768Z,38.20
2018-03-25T15:03:17.220Z,38.50
2018-03-25T15:05:47.346Z,38.60
2018-03-25T15:08:17.847Z,40.40
2018-03-25T15:10:47.956Z,39.30
2018-03-25T15:13:18.164Z,37.80
2018-03-25T15:15:48.281Z,38.00
2018-03-25T15:18:18.699Z,38.80
2018-03-25T15:20:48.985Z,39.40
2018-03-25T15:23:20.377Z,40.40
2018-03-25T15:25:50.621Z,40.00
2018-03-25T15:28:22.284Z,39.90
2018-03-25T15:30:52.438Z,39.80
2018-03-25T15:33:22.515Z,40.50
2018-03-25T15:35:53.252Z,44.20
2018-03-25T15:38:23.932Z,40.80
2018-03-25T15:40:54.032Z,42.00
2018-03-25T15:43:25.252Z,41.90
2018-03-25T15:45:55.470Z,42.00
2018-03-25T15:48:25.927Z,45.30
2018-03-25T15:50:56.023Z,41.80
2018-03-25T15:53:26.427Z,42.30
2018-03-25T15:55:59.357Z,42.10
2018-03-25T15:58:31.612Z,42.80
2018-03-25T16:01:01.860Z,42.60
2018-03-25T16:03:32.021Z,42.90
2018-03-25T16:06:03.479Z,42.00
2018-03-25T16:08:33.519Z,42.50
2018-03-25T16:11:03.350Z,42.50
2018-03-25T16:13:33.185Z,43.60
2018-03-25T16:16:04.049Z,44.10
2018-03-25T16:18:34.294Z,44.40
2018-03-25T16:21:05.413Z,44.50
2018-03-25T16:23:35.189Z,45.10
2018-03-25T16:26:04.663Z,46.50
2018-03-25T16:28:35.190Z,44.50
2018-03-25T16:31:05.326Z,45.10
2018-03-25T16:33:37.280Z,45.10
2018-03-25T16:36:07.382Z,46.20
2018-03-25T16:38:37.774Z,45.80
2018-03-25T16:41:09.163Z,46.60
2018-03-25T16:43:39.787Z,46.60
2018-03-25T16:46:11.053Z,46.90
2018-03-25T16:51:46.319Z,48.10
2018-03-25T16:54:19.776Z,49.60
2018-03-25T16:56:50.853Z,49.50
2018-03-25T16:59:21.855Z,50.10
2018-03-25T17:01:52.288Z,50.70
2018-03-25T17:04:22.929Z,51.10
2018-03-25T17:06:52.996Z,51.60
2018-03-25T17:09:24.511Z,51.80
2018-03-25T17:11:54.577Z,52.20
2018-03-25T17:14:24.899Z,52.80
2018-03-25T17:16:55.166Z,54.50
2018-03-25T17:19:50.615Z,53.90
2018-03-25T17:22:50.964Z,54.30
2018-03-25T17:25:21.152Z,55.90
2018-03-25T17:30:56.300Z,58.00
2018-03-25T17:33:26.413Z,60.00
2018-03-25T17:39:03.020Z,62.20
2018-03-25T17:41:33.134Z,63.20
2018-03-25T17:44:03.336Z,65.10
2018-03-25T17:46:52.308Z,65.10
2018-03-25T17:49:22.410Z,65.90
2018-03-25T17:52:01.947Z,67.60
2018-03-25T17:54:32.144Z,68.20
2018-03-25T17:57:03.594Z,68.70
2018-03-25T17:59:34.913Z,69.60
2018-03-25T18:02:05.107Z,69.60
2018-03-25T18:04:35.523Z,69.90
2018-03-25T18:07:22.292Z,70.70
2018-03-25T18:09:53.443Z,70.90
2018-03-25T18:15:34.830Z,71.70
2018-03-25T18:21:11.790Z,71.50
2018-03-25T18:23:42.827Z,70.90
2018-03-25T18:26:13.070Z,71.20
2018-03-25T18:31:49.297Z,71.50
2018-03-25T18:34:25.025Z,72.30
2018-03-25T18:37:01.118Z,72.10
2018-03-25T18:39:51.666Z,71.90
2018-03-25T18:42:22.775Z,72.40
2018-03-25T18:44:53.449Z,72.60
2018-03-25T18:50:53.137Z,73.00
2018-03-25T18:53:37.238Z,73.20
2018-03-25T18:56:07.369Z,73.20
2018-03-25T18:58:51.646Z,72.60
2018-03-25T19:04:28.162Z,70.60
2018-03-25T19:06:59.016Z,69.30
2018-03-25T19:09:51.626Z,69.30
2018-03-25T19:12:25.195Z,69.10
2018-03-25T19:14:59.831Z,68.70
2018-03-25T19:17:30.652Z,68.30
2018-03-25T19:20:00.740Z,67.90
2018-03-25T19:28:19.407Z,68.40
2018-03-25T19:34:06.303Z,69.00
2018-03-25T19:36:36.362Z,69.30
2018-03-25T19:39:15.776Z,68.90
2018-03-25T19:41:48.596Z,68.80
2018-03-25T20:01:00.190Z,70.50
2018-03-25T20:03:30.515Z,70.70
2018-03-25T20:09:10.733Z,70.80
2018-03-25T20:27:44.524Z,70.60
2018-03-25T20:33:24.595Z,70.90
2018-03-25T20:36:15.874Z,71.20
2018-03-25T20:54:35.126Z,71.50
2018-03-25T20:57:04.932Z,71.40
2018-03-25T21:02:47.037Z,71.70
2018-03-25T21:05:17.317Z,71.40
2018-03-25T21:07:47.613Z,71.00
2018-03-25T21:10:17.901Z,70.80
2018-03-25T21:12:54.111Z,70.70
2018-03-25T21:15:24.551Z,70.60
2018-03-25T21:17:54.551Z,70.40
2018-03-25T21:20:25.164Z,70.30
2018-03-25T21:22:55.288Z,70.60
2018-03-25T21:25:25.315Z,71.20
2018-03-25T21:27:56.467Z,71.20
2018-03-25T21:30:26.526Z,71.80
2018-03-25T21:33:21.640Z,72.30
2018-03-25T21:35:54.300Z,72.80
2018-03-25T21:38:26.497Z,73.80
2018-03-25T21:40:57.267Z,73.90
2018-03-25T21:46:36.653Z,73.50
2018-03-25T21:49:22.922Z,73.20
2018-03-25T21:51:54.038Z,72.90
2018-03-25T21:54:24.820Z,73.10
2018-03-25T21:56:55.299Z,73.50
2018-03-25T22:02:35.368Z,73.60
2018-03-25T22:05:05.589Z,73.20
2018-03-25T22:10:57.970Z,72.60
2018-03-25T22:13:28.233Z,71.90
2018-03-25T22:15:58.322Z,70.90
2018-03-25T22:18:31.261Z,71.00
2018-03-25T22:21:01.336Z,71.30
2018-03-25T22:29:53.325Z,72.10
2018-03-25T22:32:23.358Z,72.40
2018-03-25T22:38:03.099Z,71.20
2018-03-25T22:40:34.117Z,70.40
2018-03-25T22:43:05.110Z,70.00
2018-03-25T22:49:09.928Z,69.70
2018-03-25T22:51:40.024Z,69.40
2018-03-25T22:54:10.404Z,69.90
2018-03-25T22:56:58.372Z,70.10
2018-03-25T23:05:49.609Z,71.50
2018-03-25T23:08:20.555Z,71.70
2018-03-25T23:10:50.947Z,71.50
2018-03-25T23:16:24.625Z,71.40
2018-03-25T23:22:31.468Z,72.20
2018-03-25T23:28:12.300Z,73.40
2018-03-25T23:30:42.477Z,73.60
2018-03-25T23:33:12.530Z,73.70
2018-03-25T23:36:01.137Z,73.50
2018-03-25T23:44:04.797Z,73.10
2018-03-25T23:46:35.207Z,72.70
2018-03-25T23:49:23.005Z,72.40
2018-03-25T23:55:03.149Z,71.70
2018-03-25T23:57:33.217Z,71.40
